sensor_id;sensor_type;location;lat;lon;timestamp;P1;durP1;ratioP1;P2;durP2;ratioP2
75589;SDS011;64169;47.240;11.312;2023-11-21T00:00:51;17.80;;;6.80;;
75589;SDS011;64169;47.240;11.312;2023-11-21T00:03:16;16.45;;;6.68;;
75589;SDS011;64169;47.240;11.312;2023-11-21T00:05:42;13.02;;;5.55;;
75589;SDS011;64169;47.240;11.312;2023-11-21T00:08:07;13.25;;;5.82;;
75589;SDS011;64169;47.240;11.312;2023-11-21T00:10:33;14.05;;;5.88;;
75589;SDS011;64169;47.240;11.312;2023-11-21T00:12:59;13.25;;;5.75;;
75589;SDS011;64169;47.240;11.312;2023-11-21T00:15:25;11.93;;;5.40;;
75589;SDS011;64169;47.240;11.312;2023-11-21T00:17:51;12.95;;;6.00;;
75589;SDS011;64169;47.240;11.312;2023-11-21T00:20:17;12.38;;;6.40;;
75589;SDS011;64169;47.240;11.312;2023-11-21T00:22:42;12.77;;;5.75;;
75589;SDS011;64169;47.240;11.312;2023-11-21T00:25:08;11.90;;;5.43;;
75589;SDS011;64169;47.240;11.312;2023-11-21T00:27:34;11.57;;;5.13;;
75589;SDS011;64169;47.240;11.312;2023-11-21T00:30:00;13.90;;;5.65;;
75589;SDS011;64169;47.240;11.312;2023-11-21T00:32:25;12.73;;;5.63;;
75589;SDS011;64169;47.240;11.312;2023-11-21T00:34:51;12.18;;;5.25;;
75589;SDS011;64169;47.240;11.312;2023-11-21T00:37:16;12.73;;;6.30;;
75589;SDS011;64169;47.240;11.312;2023-11-21T00:39:42;13.85;;;5.70;;
75589;SDS011;64169;47.240;11.312;2023-11-21T00:42:07;11.48;;;5.30;;
75589;SDS011;64169;47.240;11.312;2023-11-21T00:44:33;11.48;;;4.97;;
75589;SDS011;64169;47.240;11.312;2023-11-21T00:46:59;13.27;;;5.15;;
75589;SDS011;64169;47.240;11.312;2023-11-21T00:49:25;11.48;;;5.22;;
75589;SDS011;64169;47.240;11.312;2023-11-21T00:51:50;13.10;;;5.90;;
75589;SDS011;64169;47.240;11.312;2023-11-21T00:54:15;10.25;;;4.82;;
75589;SDS011;64169;47.240;11.312;2023-11-21T00:56:42;12.88;;;5.20;;
75589;SDS011;64169;47.240;11.312;2023-11-21T00:59:07;11.57;;;5.03;;
75589;SDS011;64169;47.240;11.312;2023-11-21T01:01:33;14.10;;;5.68;;
75589;SDS011;64169;47.240;11.312;2023-11-21T01:03:58;12.00;;;5.85;;
75589;SDS011;64169;47.240;11.312;2023-11-21T01:06:24;12.05;;;5.00;;
75589;SDS011;64169;47.240;11.312;2023-11-21T01:08:50;11.18;;;5.13;;
75589;SDS011;64169;47.240;11.312;2023-11-21T01:11:15;11.20;;;5.15;;
75589;SDS011;64169;47.240;11.312;2023-11-21T01:13:41;12.73;;;5.18;;
75589;SDS011;64169;47.240;11.312;2023-11-21T01:16:07;11.05;;;5.28;;
75589;SDS011;64169;47.240;11.312;2023-11-21T01:18:33;10.80;;;5.20;;
75589;SDS011;64169;47.240;11.312;2023-11-21T01:20:58;11.65;;;5.03;;
75589;SDS011;64169;47.240;11.312;2023-11-21T01:23:25;11.20;;;5.03;;
75589;SDS011;64169;47.240;11.312;2023-11-21T01:25:52;13.70;;;5.20;;
75589;SDS011;64169;47.240;11.312;2023-11-21T01:28:17;12.75;;;5.20;;
75589;SDS011;64169;47.240;11.312;2023-11-21T01:30:43;10.38;;;4.85;;
75589;SDS011;64169;47.240;11.312;2023-11-21T01:33:09;11.10;;;5.32;;
75589;SDS011;64169;47.240;11.312;2023-11-21T01:35:35;11.18;;;4.57;;
75589;SDS011;64169;47.240;11.312;2023-11-21T01:38:01;14.70;;;6.28;;
75589;SDS011;64169;47.240;11.312;2023-11-21T01:40:26;12.63;;;4.95;;
75589;SDS011;64169;47.240;11.312;2023-11-21T01:42:52;10.82;;;4.70;;
75589;SDS011;64169;47.240;11.312;2023-11-21T01:45:18;11.88;;;5.40;;
75589;SDS011;64169;47.240;11.312;2023-11-21T01:47:44;11.90;;;5.32;;
75589;SDS011;64169;47.240;11.312;2023-11-21T01:50:10;11.13;;;5.55;;
75589;SDS011;64169;47.240;11.312;2023-11-21T01:52:39;10.05;;;5.10;;
75589;SDS011;64169;47.240;11.312;2023-11-21T01:55:06;9.57;;;4.80;;
75589;SDS011;64169;47.240;11.312;2023-11-21T01:57:33;12.52;;;5.97;;
75589;SDS011;64169;47.240;11.312;2023-11-21T01:59:59;15.68;;;6.13;;
75589;SDS011;64169;47.240;11.312;2023-11-21T02:02:41;11.68;;;6.05;;
75589;SDS011;64169;47.240;11.312;2023-11-21T02:05:17;14.38;;;6.30;;
75589;SDS011;64169;47.240;11.312;2023-11-21T02:07:46;15.63;;;6.18;;
75589;SDS011;64169;47.240;11.312;2023-11-21T02:10:17;16.10;;;6.57;;
75589;SDS011;64169;47.240;11.312;2023-11-21T02:12:47;15.18;;;5.32;;
75589;SDS011;64169;47.240;11.312;2023-11-21T02:15:15;11.90;;;5.22;;
75589;SDS011;64169;47.240;11.312;2023-11-21T02:17:48;12.13;;;5.75;;
75589;SDS011;64169;47.240;11.312;2023-11-21T02:20:16;12.98;;;6.22;;
75589;SDS011;64169;47.240;11.312;2023-11-21T02:22:52;13.88;;;6.60;;
75589;SDS011;64169;47.240;11.312;2023-11-21T02:25:23;15.93;;;5.65;;
75589;SDS011;64169;47.240;11.312;2023-11-21T02:27:53;11.75;;;5.28;;
75589;SDS011;64169;47.240;11.312;2023-11-21T02:30:20;14.15;;;6.35;;
75589;SDS011;64169;47.240;11.312;2023-11-21T02:32:46;13.93;;;6.10;;
75589;SDS011;64169;47.240;11.312;2023-11-21T02:35:13;12.90;;;5.60;;
75589;SDS011;64169;47.240;11.312;2023-11-21T02:37:38;13.50;;;5.80;;
75589;SDS011;64169;47.240;11.312;2023-11-21T02:40:05;13.18;;;5.60;;
75589;SDS011;64169;47.240;11.312;2023-11-21T02:42:31;17.48;;;6.60;;
75589;SDS011;64169;47.240;11.312;2023-11-21T02:44:57;14.90;;;6.53;;
75589;SDS011;64169;47.240;11.312;2023-11-21T02:47:22;15.43;;;6.70;;
75589;SDS011;64169;47.240;11.312;2023-11-21T02:49:48;17.75;;;7.28;;
75589;SDS011;64169;47.240;11.312;2023-11-21T02:52:14;16.55;;;7.22;;
75589;SDS011;64169;47.240;11.312;2023-11-21T02:54:39;14.27;;;6.10;;
75589;SDS011;64169;47.240;11.312;2023-11-21T02:57:04;14.45;;;6.45;;
75589;SDS011;64169;47.240;11.312;2023-11-21T02:59:30;13.35;;;6.63;;
75589;SDS011;64169;47.240;11.312;2023-11-21T03:01:56;14.18;;;6.13;;
75589;SDS011;64169;47.240;11.312;2023-11-21T03:04:22;15.10;;;6.20;;
75589;SDS011;64169;47.240;11.312;2023-11-21T03:06:47;13.43;;;6.22;;
75589;SDS011;64169;47.240;11.312;2023-11-21T03:09:12;13.32;;;5.70;;
75589;SDS011;64169;47.240;11.312;2023-11-21T03:11:38;14.23;;;6.07;;
75589;SDS011;64169;47.240;11.312;2023-11-21T03:14:04;13.90;;;6.07;;
75589;SDS011;64169;47.240;11.312;2023-11-21T03:16:30;14.82;;;6.50;;
75589;SDS011;64169;47.240;11.312;2023-11-21T03:18:56;12.48;;;5.35;;
75589;SDS011;64169;47.240;11.312;2023-11-21T03:21:22;13.93;;;5.45;;
75589;SDS011;64169;47.240;11.312;2023-11-21T03:23:47;13.65;;;5.57;;
75589;SDS011;64169;47.240;11.312;2023-11-21T03:26:13;14.10;;;5.70;;
75589;SDS011;64169;47.240;11.312;2023-11-21T03:28:38;13.57;;;5.95;;
75589;SDS011;64169;47.240;11.312;2023-11-21T03:31:04;15.65;;;6.60;;
75589;SDS011;64169;47.240;11.312;2023-11-21T03:33:31;11.98;;;4.97;;
75589;SDS011;64169;47.240;11.312;2023-11-21T03:35:57;13.85;;;6.40;;
75589;SDS011;64169;47.240;11.312;2023-11-21T03:38:23;14.95;;;5.95;;
75589;SDS011;64169;47.240;11.312;2023-11-21T03:40:48;14.57;;;5.80;;
75589;SDS011;64169;47.240;11.312;2023-11-21T03:43:14;14.57;;;6.07;;
75589;SDS011;64169;47.240;11.312;2023-11-21T03:45:39;14.50;;;6.05;;
75589;SDS011;64169;47.240;11.312;2023-11-21T03:48:06;13.60;;;5.80;;
75589;SDS011;64169;47.240;11.312;2023-11-21T03:50:32;12.45;;;5.15;;
75589;SDS011;64169;47.240;11.312;2023-11-21T03:52:57;13.13;;;5.47;;
75589;SDS011;64169;47.240;11.312;2023-11-21T03:55:22;15.02;;;6.13;;
75589;SDS011;64169;47.240;11.312;2023-11-21T03:57:51;13.60;;;5.13;;
75589;SDS011;64169;47.240;11.312;2023-11-21T04:00:17;15.93;;;6.63;;
75589;SDS011;64169;47.240;11.312;2023-11-21T04:02:43;12.43;;;6.15;;
75589;SDS011;64169;47.240;11.312;2023-11-21T04:05:08;12.07;;;6.07;;
75589;SDS011;64169;47.240;11.312;2023-11-21T04:07:34;13.93;;;5.90;;
75589;SDS011;64169;47.240;11.312;2023-11-21T04:10:00;14.88;;;6.60;;
75589;SDS011;64169;47.240;11.312;2023-11-21T04:12:25;13.75;;;6.47;;
75589;SDS011;64169;47.240;11.312;2023-11-21T04:14:51;14.77;;;6.40;;
75589;SDS011;64169;47.240;11.312;2023-11-21T04:17:19;21.38;;;10.65;;
75589;SDS011;64169;47.240;11.312;2023-11-21T04:19:45;19.83;;;9.50;;
75589;SDS011;64169;47.240;11.312;2023-11-21T04:22:11;22.20;;;8.18;;
75589;SDS011;64169;47.240;11.312;2023-11-21T04:24:36;20.08;;;8.18;;
75589;SDS011;64169;47.240;11.312;2023-11-21T04:27:02;20.08;;;7.38;;
75589;SDS011;64169;47.240;11.312;2023-11-21T04:29:27;15.80;;;7.00;;
75589;SDS011;64169;47.240;11.312;2023-11-21T04:31:53;12.43;;;5.40;;
75589;SDS011;64169;47.240;11.312;2023-11-21T04:34:18;10.55;;;4.40;;
75589;SDS011;64169;47.240;11.312;2023-11-21T04:36:44;11.98;;;4.68;;
75589;SDS011;64169;47.240;11.312;2023-11-21T04:39:09;11.43;;;4.22;;
75589;SDS011;64169;47.240;11.312;2023-11-21T04:41:34;10.98;;;4.68;;
75589;SDS011;64169;47.240;11.312;2023-11-21T04:44:01;11.63;;;5.13;;
75589;SDS011;64169;47.240;11.312;2023-11-21T04:46:27;14.70;;;5.70;;
75589;SDS011;64169;47.240;11.312;2023-11-21T04:48:52;11.40;;;5.03;;
75589;SDS011;64169;47.240;11.312;2023-11-21T04:51:17;11.07;;;5.40;;
75589;SDS011;64169;47.240;11.312;2023-11-21T04:53:43;10.63;;;5.18;;
75589;SDS011;64169;47.240;11.312;2023-11-21T04:56:08;13.18;;;5.57;;
75589;SDS011;64169;47.240;11.312;2023-11-21T04:58:34;16.20;;;6.85;;
75589;SDS011;64169;47.240;11.312;2023-11-21T05:01:00;22.60;;;9.10;;
75589;SDS011;64169;47.240;11.312;2023-11-21T05:03:25;17.02;;;7.28;;
75589;SDS011;64169;47.240;11.312;2023-11-21T05:05:51;17.60;;;8.88;;
75589;SDS011;64169;47.240;11.312;2023-11-21T05:08:16;16.98;;;8.70;;
75589;SDS011;64169;47.240;11.312;2023-11-21T05:10:42;13.00;;;7.93;;
75589;SDS011;64169;47.240;11.312;2023-11-21T05:13:07;14.63;;;6.53;;
75589;SDS011;64169;47.240;11.312;2023-11-21T05:15:36;14.35;;;5.82;;
75589;SDS011;64169;47.240;11.312;2023-11-21T05:18:02;13.60;;;6.85;;
75589;SDS011;64169;47.240;11.312;2023-11-21T05:20:28;11.98;;;6.03;;
75589;SDS011;64169;47.240;11.312;2023-11-21T05:22:53;11.90;;;6.03;;
75589;SDS011;64169;47.240;11.312;2023-11-21T05:25:19;11.38;;;5.63;;
75589;SDS011;64169;47.240;11.312;2023-11-21T05:27:47;10.05;;;4.65;;
75589;SDS011;64169;47.240;11.312;2023-11-21T05:30:13;10.77;;;4.90;;
75589;SDS011;64169;47.240;11.312;2023-11-21T05:32:39;12.25;;;4.40;;
75589;SDS011;64169;47.240;11.312;2023-11-21T05:35:05;11.43;;;5.07;;
75589;SDS011;64169;47.240;11.312;2023-11-21T05:37:37;11.18;;;4.55;;
75589;SDS011;64169;47.240;11.312;2023-11-21T05:40:04;11.15;;;4.85;;
75589;SDS011;64169;47.240;11.312;2023-11-21T05:42:34;9.57;;;4.70;;
75589;SDS011;64169;47.240;11.312;2023-11-21T05:45:00;8.65;;;3.78;;
75589;SDS011;64169;47.240;11.312;2023-11-21T05:47:38;10.75;;;4.15;;
75589;SDS011;64169;47.240;11.312;2023-11-21T05:50:08;14.63;;;6.93;;
75589;SDS011;64169;47.240;11.312;2023-11-21T05:52:39;11.13;;;6.38;;
75589;SDS011;64169;47.240;11.312;2023-11-21T05:55:06;13.93;;;7.05;;
75589;SDS011;64169;47.240;11.312;2023-11-21T05:57:35;15.30;;;6.50;;
75589;SDS011;64169;47.240;11.312;2023-11-21T06:00:07;15.02;;;6.90;;
75589;SDS011;64169;47.240;11.312;2023-11-21T06:02:40;14.88;;;6.85;;
75589;SDS011;64169;47.240;11.312;2023-11-21T06:05:08;13.98;;;5.97;;
75589;SDS011;64169;47.240;11.312;2023-11-21T06:07:34;11.93;;;4.80;;
75589;SDS011;64169;47.240;11.312;2023-11-21T06:10:01;14.65;;;5.93;;
75589;SDS011;64169;47.240;11.312;2023-11-21T06:12:31;11.23;;;6.70;;
75589;SDS011;64169;47.240;11.312;2023-11-21T06:15:00;16.45;;;6.85;;
75589;SDS011;64169;47.240;11.312;2023-11-21T06:17:29;13.40;;;6.32;;
75589;SDS011;64169;47.240;11.312;2023-11-21T06:19:54;13.38;;;5.53;;
75589;SDS011;64169;47.240;11.312;2023-11-21T06:22:20;9.80;;;4.32;;
75589;SDS011;64169;47.240;11.312;2023-11-21T06:24:45;11.93;;;4.80;;
75589;SDS011;64169;47.240;11.312;2023-11-21T06:27:11;8.73;;;3.95;;
75589;SDS011;64169;47.240;11.312;2023-11-21T06:29:36;10.57;;;4.10;;
75589;SDS011;64169;47.240;11.312;2023-11-21T06:32:02;11.25;;;4.35;;
75589;SDS011;64169;47.240;11.312;2023-11-21T06:34:30;8.73;;;4.03;;
75589;SDS011;64169;47.240;11.312;2023-11-21T06:36:55;7.28;;;2.95;;
75589;SDS011;64169;47.240;11.312;2023-11-21T06:39:21;11.63;;;4.25;;
75589;SDS011;64169;47.240;11.312;2023-11-21T06:41:48;8.57;;;3.97;;
75589;SDS011;64169;47.240;11.312;2023-11-21T06:44:14;7.72;;;2.70;;
75589;SDS011;64169;47.240;11.312;2023-11-21T06:46:40;6.90;;;2.83;;
75589;SDS011;64169;47.240;11.312;2023-11-21T06:49:07;7.53;;;3.50;;
75589;SDS011;64169;47.240;11.312;2023-11-21T06:51:33;8.95;;;3.78;;
75589;SDS011;64169;47.240;11.312;2023-11-21T06:53:58;9.05;;;4.80;;
75589;SDS011;64169;47.240;11.312;2023-11-21T06:56:24;12.80;;;4.78;;
75589;SDS011;64169;47.240;11.312;2023-11-21T06:58:49;9.68;;;4.13;;
75589;SDS011;64169;47.240;11.312;2023-11-21T07:01:18;8.38;;;4.20;;
75589;SDS011;64169;47.240;11.312;2023-11-21T07:03:44;9.00;;;4.20;;
75589;SDS011;64169;47.240;11.312;2023-11-21T07:06:10;8.88;;;4.63;;
75589;SDS011;64169;47.240;11.312;2023-11-21T07:08:36;10.45;;;4.18;;
75589;SDS011;64169;47.240;11.312;2023-11-21T07:11:02;9.32;;;4.20;;
75589;SDS011;64169;47.240;11.312;2023-11-21T07:13:28;11.88;;;4.05;;
75589;SDS011;64169;47.240;11.312;2023-11-21T07:15:54;10.45;;;4.40;;
75589;SDS011;64169;47.240;11.312;2023-11-21T07:18:19;9.27;;;4.30;;
75589;SDS011;64169;47.240;11.312;2023-11-21T07:20:45;11.48;;;4.55;;
75589;SDS011;64169;47.240;11.312;2023-11-21T07:23:10;11.52;;;4.30;;
75589;SDS011;64169;47.240;11.312;2023-11-21T07:25:36;8.38;;;3.55;;
75589;SDS011;64169;47.240;11.312;2023-11-21T07:28:01;8.02;;;3.72;;
75589;SDS011;64169;47.240;11.312;2023-11-21T07:30:26;8.10;;;3.60;;
75589;SDS011;64169;47.240;11.312;2023-11-21T07:32:52;8.38;;;3.47;;
75589;SDS011;64169;47.240;11.312;2023-11-21T07:35:18;7.25;;;3.40;;
75589;SDS011;64169;47.240;11.312;2023-11-21T07:37:43;7.95;;;3.33;;
75589;SDS011;64169;47.240;11.312;2023-11-21T07:40:09;7.25;;;3.28;;
75589;SDS011;64169;47.240;11.312;2023-11-21T07:42:36;9.32;;;4.30;;
75589;SDS011;64169;47.240;11.312;2023-11-21T07:45:03;9.85;;;3.78;;
75589;SDS011;64169;47.240;11.312;2023-11-21T07:47:29;9.25;;;3.83;;
75589;SDS011;64169;47.240;11.312;2023-11-21T07:49:55;7.70;;;3.05;;
75589;SDS011;64169;47.240;11.312;2023-11-21T07:52:23;8.73;;;3.92;;
75589;SDS011;64169;47.240;11.312;2023-11-21T07:54:49;6.68;;;3.15;;
75589;SDS011;64169;47.240;11.312;2023-11-21T07:57:14;8.60;;;3.72;;
75589;SDS011;64169;47.240;11.312;2023-11-21T07:59:43;7.43;;;3.33;;
75589;SDS011;64169;47.240;11.312;2023-11-21T08:02:08;7.82;;;3.28;;
75589;SDS011;64169;47.240;11.312;2023-11-21T08:04:33;6.32;;;2.88;;
75589;SDS011;64169;47.240;11.312;2023-11-21T08:07:00;7.72;;;3.08;;
75589;SDS011;64169;47.240;11.312;2023-11-21T08:09:27;6.93;;;3.38;;
75589;SDS011;64169;47.240;11.312;2023-11-21T08:11:52;7.18;;;3.03;;
75589;SDS011;64169;47.240;11.312;2023-11-21T08:14:18;8.68;;;3.95;;
75589;SDS011;64169;47.240;11.312;2023-11-21T08:16:44;6.25;;;3.10;;
75589;SDS011;64169;47.240;11.312;2023-11-21T08:19:09;7.40;;;3.08;;
75589;SDS011;64169;47.240;11.312;2023-11-21T08:21:36;9.05;;;3.75;;
75589;SDS011;64169;47.240;11.312;2023-11-21T08:24:04;8.68;;;3.63;;
75589;SDS011;64169;47.240;11.312;2023-11-21T08:26:30;7.65;;;3.60;;
75589;SDS011;64169;47.240;11.312;2023-11-21T08:28:55;8.27;;;3.63;;
75589;SDS011;64169;47.240;11.312;2023-11-21T08:31:25;6.22;;;2.72;;
75589;SDS011;64169;47.240;11.312;2023-11-21T08:33:50;9.63;;;3.58;;
75589;SDS011;64169;47.240;11.312;2023-11-21T08:36:16;7.18;;;2.85;;
75589;SDS011;64169;47.240;11.312;2023-11-21T08:38:41;7.57;;;3.22;;
75589;SDS011;64169;47.240;11.312;2023-11-21T08:41:07;9.27;;;3.65;;
75589;SDS011;64169;47.240;11.312;2023-11-21T08:43:35;9.73;;;4.25;;
75589;SDS011;64169;47.240;11.312;2023-11-21T08:46:05;8.30;;;3.67;;
75589;SDS011;64169;47.240;11.312;2023-11-21T08:48:31;8.05;;;3.55;;
75589;SDS011;64169;47.240;11.312;2023-11-21T08:50:56;6.95;;;3.13;;
75589;SDS011;64169;47.240;11.312;2023-11-21T08:53:22;7.63;;;2.90;;
75589;SDS011;64169;47.240;11.312;2023-11-21T08:55:47;6.60;;;3.10;;
75589;SDS011;64169;47.240;11.312;2023-11-21T08:58:15;7.50;;;3.35;;
75589;SDS011;64169;47.240;11.312;2023-11-21T09:00:41;6.43;;;3.03;;
75589;SDS011;64169;47.240;11.312;2023-11-21T09:03:06;8.43;;;3.17;;
75589;SDS011;64169;47.240;11.312;2023-11-21T09:05:34;8.55;;;3.90;;
75589;SDS011;64169;47.240;11.312;2023-11-21T09:08:02;9.25;;;3.80;;
75589;SDS011;64169;47.240;11.312;2023-11-21T09:10:27;9.30;;;3.83;;
75589;SDS011;64169;47.240;11.312;2023-11-21T09:12:53;8.63;;;3.75;;
75589;SDS011;64169;47.240;11.312;2023-11-21T09:15:18;8.85;;;4.65;;
75589;SDS011;64169;47.240;11.312;2023-11-21T09:17:45;9.50;;;4.22;;
75589;SDS011;64169;47.240;11.312;2023-11-21T09:20:11;8.27;;;4.13;;
75589;SDS011;64169;47.240;11.312;2023-11-21T09:22:36;9.23;;;3.85;;
75589;SDS011;64169;47.240;11.312;2023-11-21T09:25:02;7.97;;;3.28;;
75589;SDS011;64169;47.240;11.312;2023-11-21T09:27:30;10.40;;;3.97;;
75589;SDS011;64169;47.240;11.312;2023-11-21T09:29:56;7.95;;;4.10;;
75589;SDS011;64169;47.240;11.312;2023-11-21T09:32:23;10.50;;;3.80;;
75589;SDS011;64169;47.240;11.312;2023-11-21T09:34:49;9.32;;;3.83;;
75589;SDS011;64169;47.240;11.312;2023-11-21T09:37:15;9.02;;;3.67;;
75589;SDS011;64169;47.240;11.312;2023-11-21T09:39:41;7.95;;;3.78;;
75589;SDS011;64169;47.240;11.312;2023-11-21T09:44:41;8.20;;;3.30;;
75589;SDS011;64169;47.240;11.312;2023-11-21T09:47:11;8.63;;;3.67;;
75589;SDS011;64169;47.240;11.312;2023-11-21T09:49:41;7.68;;;3.15;;
75589;SDS011;64169;47.240;11.312;2023-11-21T09:52:08;9.85;;;4.07;;
75589;SDS011;64169;47.240;11.312;2023-11-21T09:54:36;8.32;;;3.50;;
75589;SDS011;64169;47.240;11.312;2023-11-21T09:57:01;7.55;;;3.45;;
75589;SDS011;64169;47.240;11.312;2023-11-21T09:59:30;11.07;;;3.92;;
75589;SDS011;64169;47.240;11.312;2023-11-21T10:01:59;8.32;;;3.55;;
75589;SDS011;64169;47.240;11.312;2023-11-21T10:04:25;7.53;;;3.53;;
75589;SDS011;64169;47.240;11.312;2023-11-21T10:06:52;7.68;;;3.15;;
75589;SDS011;64169;47.240;11.312;2023-11-21T10:09:18;6.68;;;2.70;;
75589;SDS011;64169;47.240;11.312;2023-11-21T10:11:45;8.93;;;3.30;;
75589;SDS011;64169;47.240;11.312;2023-11-21T10:14:12;6.43;;;2.75;;
75589;SDS011;64169;47.240;11.312;2023-11-21T10:16:39;6.55;;;3.15;;
75589;SDS011;64169;47.240;11.312;2023-11-21T10:19:05;9.10;;;3.17;;
75589;SDS011;64169;47.240;11.312;2023-11-21T10:21:33;6.05;;;2.47;;
75589;SDS011;64169;47.240;11.312;2023-11-21T10:23:59;7.40;;;2.85;;
75589;SDS011;64169;47.240;11.312;2023-11-21T10:26:25;7.78;;;3.47;;
75589;SDS011;64169;47.240;11.312;2023-11-21T10:28:58;6.53;;;2.60;;
75589;SDS011;64169;47.240;11.312;2023-11-21T10:31:28;7.85;;;3.85;;
75589;SDS011;64169;47.240;11.312;2023-11-21T10:33:55;7.18;;;2.50;;
75589;SDS011;64169;47.240;11.312;2023-11-21T10:36:42;9.20;;;3.53;;
75589;SDS011;64169;47.240;11.312;2023-11-21T10:39:08;6.05;;;2.42;;
75589;SDS011;64169;47.240;11.312;2023-11-21T10:41:35;6.60;;;2.65;;
75589;SDS011;64169;47.240;11.312;2023-11-21T10:44:00;6.25;;;2.47;;
75589;SDS011;64169;47.240;11.312;2023-11-21T10:46:29;5.75;;;2.83;;
75589;SDS011;64169;47.240;11.312;2023-11-21T10:48:55;8.55;;;3.00;;
75589;SDS011;64169;47.240;11.312;2023-11-21T10:51:21;5.57;;;2.75;;
75589;SDS011;64169;47.240;11.312;2023-11-21T10:53:46;7.25;;;2.85;;
75589;SDS011;64169;47.240;11.312;2023-11-21T10:56:13;9.18;;;3.13;;
75589;SDS011;64169;47.240;11.312;2023-11-21T10:58:48;6.65;;;2.25;;
75589;SDS011;64169;47.240;11.312;2023-11-21T11:01:14;6.65;;;3.33;;
75589;SDS011;64169;47.240;11.312;2023-11-21T11:03:41;9.95;;;3.28;;
75589;SDS011;64169;47.240;11.312;2023-11-21T11:06:08;7.03;;;2.75;;
75589;SDS011;64169;47.240;11.312;2023-11-21T11:08:36;7.60;;;3.30;;
75589;SDS011;64169;47.240;11.312;2023-11-21T11:11:04;8.40;;;3.40;;
75589;SDS011;64169;47.240;11.312;2023-11-21T11:13:30;9.02;;;3.47;;
75589;SDS011;64169;47.240;11.312;2023-11-21T11:15:59;6.85;;;3.08;;
75589;SDS011;64169;47.240;11.312;2023-11-21T11:18:26;8.23;;;3.53;;
75589;SDS011;64169;47.240;11.312;2023-11-21T11:20:53;9.70;;;3.38;;
75589;SDS011;64169;47.240;11.312;2023-11-21T11:23:32;8.05;;;3.33;;
75589;SDS011;64169;47.240;11.312;2023-11-21T11:26:22;6.97;;;3.42;;
75589;SDS011;64169;47.240;11.312;2023-11-21T11:34:32;7.38;;;3.00;;
75589;SDS011;64169;47.240;11.312;2023-11-21T11:37:04;8.95;;;3.50;;
75589;SDS011;64169;47.240;11.312;2023-11-21T11:39:42;8.55;;;3.42;;
75589;SDS011;64169;47.240;11.312;2023-11-21T11:42:17;6.53;;;2.67;;
75589;SDS011;64169;47.240;11.312;2023-11-21T11:47:15;7.40;;;3.22;;
75589;SDS011;64169;47.240;11.312;2023-11-21T11:52:43;7.20;;;3.08;;
75589;SDS011;64169;47.240;11.312;2023-11-21T11:55:12;7.82;;;2.95;;
75589;SDS011;64169;47.240;11.312;2023-11-21T11:57:39;8.23;;;2.88;;
75589;SDS011;64169;47.240;11.312;2023-11-21T12:02:42;5.85;;;2.47;;
75589;SDS011;64169;47.240;11.312;2023-11-21T12:05:13;6.15;;;2.40;;
75589;SDS011;64169;47.240;11.312;2023-11-21T12:10:18;7.90;;;3.63;;
75589;SDS011;64169;47.240;11.312;2023-11-21T12:12:45;10.23;;;4.00;;
75589;SDS011;64169;47.240;11.312;2023-11-21T12:15:14;9.52;;;4.07;;
75589;SDS011;64169;47.240;11.312;2023-11-21T12:17:43;8.73;;;4.13;;
75589;SDS011;64169;47.240;11.312;2023-11-21T12:20:10;9.48;;;4.55;;
75589;SDS011;64169;47.240;11.312;2023-11-21T12:22:43;9.60;;;4.28;;
75589;SDS011;64169;47.240;11.312;2023-11-21T12:25:09;10.23;;;4.60;;
75589;SDS011;64169;47.240;11.312;2023-11-21T12:27:35;11.55;;;4.82;;
75589;SDS011;64169;47.240;11.312;2023-11-21T12:30:00;12.00;;;4.60;;
75589;SDS011;64169;47.240;11.312;2023-11-21T12:32:26;8.07;;;4.22;;
75589;SDS011;64169;47.240;11.312;2023-11-21T12:34:51;9.15;;;4.97;;
75589;SDS011;64169;47.240;11.312;2023-11-21T12:37:17;8.27;;;4.57;;
75589;SDS011;64169;47.240;11.312;2023-11-21T12:39:43;11.57;;;5.70;;
75589;SDS011;64169;47.240;11.312;2023-11-21T12:42:08;11.20;;;5.30;;
75589;SDS011;64169;47.240;11.312;2023-11-21T12:44:35;9.73;;;4.93;;
75589;SDS011;64169;47.240;11.312;2023-11-21T12:47:01;10.07;;;4.60;;
75589;SDS011;64169;47.240;11.312;2023-11-21T12:49:26;9.60;;;4.53;;
75589;SDS011;64169;47.240;11.312;2023-11-21T12:51:53;10.90;;;5.40;;
75589;SDS011;64169;47.240;11.312;2023-11-21T12:54:19;10.60;;;5.72;;
75589;SDS011;64169;47.240;11.312;2023-11-21T12:56:45;9.45;;;4.63;;
75589;SDS011;64169;47.240;11.312;2023-11-21T12:59:14;9.18;;;4.60;;
75589;SDS011;64169;47.240;11.312;2023-11-21T13:01:42;10.27;;;4.95;;
75589;SDS011;64169;47.240;11.312;2023-11-21T13:04:07;10.98;;;5.00;;
75589;SDS011;64169;47.240;11.312;2023-11-21T13:06:35;9.05;;;5.00;;
75589;SDS011;64169;47.240;11.312;2023-11-21T13:09:06;10.07;;;4.68;;
75589;SDS011;64169;47.240;11.312;2023-11-21T13:11:35;9.75;;;3.95;;
75589;SDS011;64169;47.240;11.312;2023-11-21T13:14:01;11.13;;;4.57;;
75589;SDS011;64169;47.240;11.312;2023-11-21T13:16:28;7.53;;;3.80;;
75589;SDS011;64169;47.240;11.312;2023-11-21T13:18:55;7.32;;;3.38;;
75589;SDS011;64169;47.240;11.312;2023-11-21T13:21:20;7.47;;;3.30;;
75589;SDS011;64169;47.240;11.312;2023-11-21T13:23:47;8.35;;;3.35;;
75589;SDS011;64169;47.240;11.312;2023-11-21T13:26:13;8.07;;;2.83;;
75589;SDS011;64169;47.240;11.312;2023-11-21T13:28:40;7.57;;;2.60;;
75589;SDS011;64169;47.240;11.312;2023-11-21T13:31:10;6.25;;;2.75;;
75589;SDS011;64169;47.240;11.312;2023-11-21T13:33:46;6.32;;;2.28;;
75589;SDS011;64169;47.240;11.312;2023-11-21T13:36:19;4.95;;;1.80;;
75589;SDS011;64169;47.240;11.312;2023-11-21T13:38:48;5.68;;;1.58;;
75589;SDS011;64169;47.240;11.312;2023-11-21T13:41:15;5.70;;;1.90;;
75589;SDS011;64169;47.240;11.312;2023-11-21T13:43:40;6.97;;;2.03;;
75589;SDS011;64169;47.240;11.312;2023-11-21T13:46:09;6.68;;;2.20;;
75589;SDS011;64169;47.240;11.312;2023-11-21T13:48:46;4.88;;;1.88;;
75589;SDS011;64169;47.240;11.312;2023-11-21T13:51:24;5.13;;;1.77;;
75589;SDS011;64169;47.240;11.312;2023-11-21T13:54:02;4.30;;;1.60;;
75589;SDS011;64169;47.240;11.312;2023-11-21T13:56:30;4.43;;;1.20;;
75589;SDS011;64169;47.240;11.312;2023-11-21T13:58:56;4.60;;;1.40;;
75589;SDS011;64169;47.240;11.312;2023-11-21T14:01:24;4.47;;;1.30;;
75589;SDS011;64169;47.240;11.312;2023-11-21T14:04:00;4.43;;;1.33;;
75589;SDS011;64169;47.240;11.312;2023-11-21T14:06:48;4.75;;;1.63;;
75589;SDS011;64169;47.240;11.312;2023-11-21T14:09:16;4.40;;;1.13;;
75589;SDS011;64169;47.240;11.312;2023-11-21T14:11:54;3.72;;;1.15;;
75589;SDS011;64169;47.240;11.312;2023-11-21T14:14:21;3.38;;;1.00;;
75589;SDS011;64169;47.240;11.312;2023-11-21T14:16:50;4.00;;;1.50;;
75589;SDS011;64169;47.240;11.312;2023-11-21T14:19:15;4.40;;;1.25;;
75589;SDS011;64169;47.240;11.312;2023-11-21T14:21:42;3.85;;;1.40;;
75589;SDS011;64169;47.240;11.312;2023-11-21T14:24:11;4.60;;;1.55;;
75589;SDS011;64169;47.240;11.312;2023-11-21T14:26:38;6.43;;;2.80;;
75589;SDS011;64169;47.240;11.312;2023-11-21T14:29:08;7.10;;;2.10;;
75589;SDS011;64169;47.240;11.312;2023-11-21T14:31:34;8.25;;;3.22;;
75589;SDS011;64169;47.240;11.312;2023-11-21T14:34:00;15.05;;;8.18;;
75589;SDS011;64169;47.240;11.312;2023-11-21T14:36:27;15.25;;;6.63;;
75589;SDS011;64169;47.240;11.312;2023-11-21T14:38:53;20.42;;;11.38;;
75589;SDS011;64169;47.240;11.312;2023-11-21T14:41:19;6.88;;;3.30;;
75589;SDS011;64169;47.240;11.312;2023-11-21T14:43:44;5.75;;;2.00;;
75589;SDS011;64169;47.240;11.312;2023-11-21T14:46:12;11.82;;;4.95;;